x

Port Orford - 15 Nm West Of Port Orford, Or (46015) Wave Buoy

4:50pm - Mon 20th Apr 2015 All times are PDT. -7 hours from GMT.

  • Sig Wave height 9.8ft
  • Swell Direction
  • Peak Period 12s
  • Average Period 7s
  • Wind
    22mph, 29mph gusts
  • Sea Temp 51°f
  • Air Temp 53°f
  • Sea Pressure 1012.1mb
  • Port Orford - 15 Nm West Of Port Orford, Or
  • Port Orford - 15 Nm West Of Port Orford, Or

More Historic Weather Station data

Upgrade to MSW Pro to gain access to the past 30 days of data for over 8000 Wavebouys and Weather Stations around the globe.

Join Pro

Comparision Forecast

View Surf forecast
   
Mon 04/20 4:50pm 10ft 12s 7s 22 29 mph 1012.1mb 51f 53f
3:50pm 9ft 13s 7s 25 29 mph 1012.2mb 50f 52f
2:50pm 9ft 13s 7s 25 29 mph 1012.5mb 50f 53f
1:50pm 7.5ft 14s 6s 22 25 mph 1012.5mb 51f 52f
12:50pm 8.5ft 13s 6s 22 29 mph 1012.8mb 51f 52f
11:50am 8ft 14s 6s 25 29 mph 1012.9mb 51f 52f
10:50am 8.5ft 13s 7s 22 27 mph 1013.3mb 52f 52f
9:50am 8ft 14s 6s 22 27 mph 1013.1mb 52f 52f
8:50am 8ft 13s 6s 25 27 mph 1013.1mb 51f 52f
7:50am 9ft 14s 6s 20 25 mph 1013.1mb 51f 52f
6:50am 9ft 13s 6s 25 31 mph 1012.7mb 52f 52f
5:50am 8ft 14s 6s 20 25 mph 1012.5mb 52f 52f
4:50am 8.5ft 13s 6s 25 29 mph 1012.4mb 52f 53f
3:50am 9ft 13s 7s 22 27 mph 1012.4mb 52f 53f
2:50am 9ft 8s 6s 20 25 mph 1012.6mb 52f 53f
1:50am 8.5ft 13s 6s 22 29 mph 1012.5mb 52f 53f
12:50am 9ft 14s 6s 25 29 mph 1012.6mb 52f 53f
Sun 04/19 11:50pm 8ft 8s 6s 25 31 mph 1012.7mb 52f 53f
10:50pm 8.5ft 8s 6s 25 29 mph 1013.1mb 52f 53f
9:50pm 8ft 8s 6s 25 29 mph 1013.5mb 52f 54f
8:50pm 8.5ft 8s 6s 25 29 mph 1013.2mb 51f 54f
7:50pm 8ft 8s 6s 25 29 mph 1013.4mb 51f 54f
6:50pm 8ft 7s 6s 27 29 mph 1013.3mb 51f 55f
5:50pm 9ft 8s 6s 25 27 mph 1013.6mb 51f 54f
4:50pm 9ft 8s 6s 27 34 mph 1013.4mb 51f 54f
3:50pm 8ft 8s 6s 27 34 mph 1013.8mb 52f 54f
2:50pm 9ft 8s 6s 29 36 mph 1014.1mb 53f 54f
1:50pm 9ft 8s 6s 29 34 mph 1014.4mb 53f 54f
12:50pm 9ft 8s 6s 27 34 mph 1015.1mb 53f 54f
11:50am 9ft 9s 6s 27 31 mph 1015.7mb 53f 54f
10:50am 9ft 9s 6s 27 34 mph 1015.6mb 53f 53f
9:50am 10ft 8s 6s 29 34 mph 1015.7mb 52f 53f
8:50am 9.5ft 10s 6s 27 31 mph 1016.4mb 52f 53f
7:50am 9ft 10s 6s 27 31 mph 1016.7mb 52f 53f
6:50am 10.5ft 10s 6s 31 38 mph 1016.1mb 53f 51f
5:50am 10ft 8s 6s 29 36 mph 1016.3mb 52f 51f
4:50am 10ft 8s 6s 31 36 mph 1016.4mb 53f 52f
3:50am 9ft 8s 6s 29 36 mph 1016.3mb 53f 53f
2:50am 10ft 9s 6s 27 34 mph 1016.6mb 52f 53f
1:50am 10ft 8s 6s 27 34 mph 1016.9mb 52f 54f
12:50am 10ft 8s 6s 29 36 mph 1017.2mb 53f 54f
Sat 04/18 11:50pm 10.5ft 8s 6s 29 36 mph 1017.2mb 53f 54f
10:50pm 10ft 8s 6s 29 34 mph 1017.8mb 53f 54f
9:50pm 10.5ft 8s 6s 27 34 mph 1018.4mb 53f 54f
8:50pm 10ft 8s 6s 27 31 mph 1018.2mb 53f 54f
7:50pm 10ft 8s 6s 29 34 mph 1018.3mb 53f 54f
6:50pm 10ft 13s 6s 29 36 mph 1018.9mb 53f 54f
5:50pm 12ft 8s 6s 29 36 mph 1019.6mb 53f 54f
4:50pm 11ft 7s 6s 29 36 mph 1020mb 53f 54f
3:50pm 11ft 8s 6s 27 34 mph 1021mb 53f 54f
2:50pm 11ft 12s 6s 29 36 mph 1021.3mb 53f 53f
1:50pm 10ft 12s 6s 31 36 mph 1021.4mb 53f 53f
12:50pm 11ft 13s 6s 31 38 mph 1022mb 53f 53f
11:50am 10.5ft 8s 6s 31 36 mph 1022.7mb 54f 52f
10:50am 10.5ft 13s 6s 31 36 mph 1022.9mb 53f 53f
9:50am 11ft 13s 7s 31 38 mph 1023.1mb 53f 53f
8:50am 11ft 14s 6s 31 38 mph 1023.4mb 53f 53f
7:50am 11ft 8s 6s 31 38 mph 1023.6mb 53f 53f
6:50am 11ft 14s 6s 29 36 mph 1023.6mb 53f 53f
5:50am 10ft 14s 6s 29 36 mph 1023.5mb 53f 53f
4:50am 12ft 14s 7s 29 34 mph 1023.5mb 53f 53f
3:50am 11ft 14s 7s 29 34 mph 1023.5mb 53f 53f
2:50am 12ft 14s 7s 29 36 mph 1023.5mb 53f 53f
1:50am 10.5ft 14s 7s 29 34 mph 1023.8mb 53f 53f
12:50am 12ft 13s 7s 27 31 mph 1024mb 54f 53f
Fri 04/17 11:50pm 12.5ft 15s 7s 27 31 mph 1023.9mb 54f 53f
10:50pm 12.5ft 14s 7s 31 36 mph 1023.8mb 54f 53f
9:50pm 12.5ft 15s 7s 31 38 mph 1023.8mb 54f 54f
8:50pm 12ft 15s 7s 29 36 mph 1023.2mb 54f 54f
7:50pm 11ft 13s 7s 29 36 mph 1022.7mb 54f 54f
6:50pm 11ft 13s 7s 27 34 mph 1022.8mb 54f 54f
5:50pm 10ft 15s 6s 29 34 mph 1022.9mb 54f 54f
4:50pm 11ft 14s 7s 29 36 mph 1022.8mb 54f 54f
3:50pm 11ft 15s 7s 31 36 mph 1022.9mb 54f 54f
2:50pm 11.5ft 16s 7s 27 36 mph 1023.3mb 54f 54f
1:50pm 11ft 15s 8s 27 34 mph 1023.5mb 54f 54f
12:50pm 11ft 13s 7s 27 31 mph 1023.3mb 54f 54f
11:50am 13.5ft 16s 8s 27 31 mph 1023.5mb 54f 53f
10:50am 12ft 16s 7s 27 31 mph 1023.1mb 54f 54f
9:50am 12ft 16s 7s 27 34 mph 1022.9mb 54f 54f
8:50am 13ft 16s 8s 27 34 mph 1022.9mb 54f 54f
7:50am 13ft 16s 8s 29 34 mph 1022.7mb 54f 54f
6:50am 13.5ft 16s 8s 27 31 mph 1022.3mb 54f 53f
5:50am 13ft 16s 8s 27 31 mph 1021.9mb 53f 54f
4:50am 14ft 16s 9s 25 31 mph 1021.6mb 54f 53f
3:50am 14ft 15s 8s 25 29 mph 1021.7mb 54f 54f
2:50am 13ft 14s 8s 25 31 mph 1021.7mb 54f 54f
1:50am 14ft 16s 8s 25 31 mph 1021.7mb 54f 54f